Sandoval, Texas
Current Conditions -  °F | °C
As of 11:55 PM on Monday 20 Oct 2014 (Local Time) from KGRK Reporting Station
Few Clouds Few Clouds  
Wind Chill: 66°   Ceiling: Unl
Heat Index: 66°   Visibility: 7mi
Dew Point: 57°   Wind: 6mph
Humidity: 73%   Direction: 130°SE
Pressure: 30.05"   Gusts: NA
Location:  30.5793°N, 97.5096°W
Report Text: KGRK 210455Z 13005KT 7SM FEW200 19/14 A3005 RMK SLP175
Loading
Personal Weather Stations






























Interactive Weather Map
Tropical Storm Tracking
New forecast layout! Learn more

10-Day Weather Forecast

Advertisements
Track Severe Weather on mobile